Time;durP1;ratioP1;P1;durP2;ratioP2;P2;SDS_P1;SDS_P2;PMS_P1;PMS_P2;Temp;Humidity;BMP_temperature;BMP_pressure;BME280_temperature;BME280_humidity;BME280_pressure;Samples;Min_cycle;Max_cycle;Signal;HPM_P1;HPM_P2
2022/01/29 00:02:05;;;;;;;;;25.50;23.00;;;;;10.06;64.47;102973.78;5034047;28;45345;-85
2022/01/29 00:04:30;;;;;;;;;37.00;33.25;;;;;10.08;64.57;102976.38;5027786;28;45406;-85
2022/01/29 00:06:55;;;;;;;;;18.25;16.75;;;;;10.08;64.46;102971.97;5028920;28;45523;-85
2022/01/29 00:09:21;;;;;;;;;23.00;21.50;;;;;10.10;64.37;102975.47;5031724;28;45494;-83
2022/01/29 00:11:46;;;;;;;;;17.25;17.25;;;;;10.07;64.65;102958.69;5013872;28;45449;-83
2022/01/29 00:14:12;;;;;;;;;25.25;21.00;;;;;10.12;64.43;102964.78;5031940;28;45568;-84
2022/01/29 00:16:40;;;;;;;;;25.00;24.50;;;;;10.13;64.31;102966.56;5034724;28;45468;-85
2022/01/29 00:19:06;;;;;;;;;26.75;21.00;;;;;10.13;64.48;102962.13;5032371;28;45482;-85
2022/01/29 00:21:31;;;;;;;;;21.00;18.75;;;;;10.14;64.35;102961.19;5021289;28;45504;-85
2022/01/29 00:23:56;;;;;;;;;21.25;21.00;;;;;10.14;64.20;102952.34;5026439;28;45849;-84
2022/01/29 00:26:23;;;;;;;;;36.50;30.50;;;;;10.16;64.33;102948.75;5013872;28;45649;-85
2022/01/29 00:28:51;;;;;;;;;26.50;24.25;;;;;10.09;64.23;102948.88;5032622;28;47444;-85
2022/01/29 00:31:16;;;;;;;;;35.75;30.75;;;;;10.08;64.23;102941.78;5015679;28;45548;-84
2022/01/29 00:33:41;;;;;;;;;30.50;29.00;;;;;10.14;64.21;102939.91;5032721;28;45488;-84
2022/01/29 00:36:07;;;;;;;;;29.00;25.50;;;;;10.15;64.28;102939.00;5026550;28;45419;-84
2022/01/29 00:38:33;;;;;;;;;27.75;25.00;;;;;10.17;64.32;102934.53;5014335;28;47251;-84
2022/01/29 00:40:59;;;;;;;;;33.25;27.25;;;;;10.18;64.16;102932.75;5014165;28;45400;-83
2022/01/29 00:43:24;;;;;;;;;21.25;19.50;;;;;10.18;64.14;102941.59;5034794;28;45565;-84
2022/01/29 00:45:49;;;;;;;;;20.00;19.25;;;;;10.13;64.17;102908.88;5039185;28;45418;-84
2022/01/29 00:48:15;;;;;;;;;18.00;17.50;;;;;10.09;64.11;102901.00;5037469;28;59406;-84
2022/01/29 00:50:40;;;;;;;;;19.50;16.75;;;;;10.10;64.16;102914.28;5020318;28;45616;-84
2022/01/29 00:53:06;;;;;;;;;18.75;17.25;;;;;10.12;64.13;102915.09;5038323;28;45671;-85
2022/01/29 00:55:31;;;;;;;;;15.25;15.25;;;;;10.12;64.16;102914.22;5039300;28;51185;-85
2022/01/29 00:57:56;;;;;;;;;16.25;15.75;;;;;10.10;64.08;102905.38;5037124;28;45479;-84
2022/01/29 01:00:22;;;;;;;;;19.25;15.00;;;;;10.10;64.17;102911.63;5036836;28;45431;-85
2022/01/29 01:02:47;;;;;;;;;16.50;15.00;;;;;10.11;64.18;102896.50;5036522;28;45439;-84
2022/01/29 01:05:12;;;;;;;;;19.25;16.75;;;;;10.12;64.27;102893.81;5035960;28;45425;-85
2022/01/29 01:07:38;;;;;;;;;14.50;14.25;;;;;10.09;64.00;102893.88;5035780;28;45951;-84
2022/01/29 01:10:06;;;;;;;;;20.00;15.75;;;;;10.06;64.13;102885.97;5036865;28;45392;-84
2022/01/29 01:12:31;;;;;;;;;15.25;13.75;;;;;10.00;64.27;102888.72;5019153;28;45614;-85
2022/01/29 01:14:56;;;;;;;;;18.00;15.50;;;;;9.98;64.66;102901.16;5036057;28;45414;-83
2022/01/29 01:17:22;;;;;;;;;9.50;8.50;;;;;9.88;64.58;102894.28;5037852;28;45479;-82
2022/01/29 01:19:47;;;;;;;;;14.50;13.50;;;;;9.91;64.81;102899.53;5038702;28;45555;-84
2022/01/29 01:22:15;;;;;;;;;15.50;14.50;;;;;9.91;64.94;102899.53;5038303;28;45726;-85
2022/01/29 01:24:41;;;;;;;;;15.75;14.50;;;;;9.84;64.83;102890.81;5019869;28;45531;-84
2022/01/29 01:27:06;;;;;;;;;17.00;15.75;;;;;9.94;65.28;102904.81;5037779;28;45479;-84
2022/01/29 01:29:31;;;;;;;;;17.50;15.50;;;;;9.96;65.32;102908.34;5019184;28;47965;-85
2022/01/29 01:31:56;;;;;;;;;15.00;14.25;;;;;9.98;65.59;102902.06;5037911;28;45401;-85
2022/01/29 01:34:24;;;;;;;;;14.00;14.00;;;;;9.93;65.64;102901.28;5038089;28;45624;-84
2022/01/29 01:36:55;;;;;;;;;15.00;14.75;;;;;9.94;65.79;102902.16;5037820;28;46288;-84
2022/01/29 01:39:25;;;;;;;;;17.75;14.50;;;;;9.88;66.66;102897.81;5038874;28;45774;-85
2022/01/29 01:44:47;;;;;;;;;14.00;13.00;;;;;9.85;67.09;102900.53;5019207;28;45553;-83
2022/01/29 01:47:14;;;;;;;;;17.50;14.00;;;;;9.77;67.07;102890.03;5036339;28;45994;-84
2022/01/29 01:49:40;;;;;;;;;15.00;14.00;;;;;9.79;67.33;102901.53;5034508;28;45550;-83
2022/01/29 01:52:09;;;;;;;;;20.25;16.50;;;;;9.78;67.71;102894.44;5032945;28;45415;-83
2022/01/29 01:54:35;;;;;;;;;21.00;16.50;;;;;9.76;67.44;102890.06;5037325;28;45388;-84
2022/01/29 01:57:00;;;;;;;;;19.00;17.00;;;;;9.72;67.45;102877.75;5034684;28;46553;-83
2022/01/29 01:59:26;;;;;;;;;17.50;17.50;;;;;9.77;67.70;102881.19;5033364;28;45380;-83
2022/01/29 02:01:52;;;;;;;;;21.25;16.00;;;;;9.77;67.98;102886.50;5015128;28;45398;-83
2022/01/29 02:04:17;;;;;;;;;18.00;16.00;;;;;9.76;67.96;102879.41;5033409;28;45700;-83
2022/01/29 02:06:43;;;;;;;;;16.75;15.75;;;;;9.82;68.17;102879.31;5027810;28;45906;-82
2022/01/29 02:09:08;;;;;;;;;17.75;15.25;;;;;9.87;67.99;102877.44;5034018;28;45677;-83
2022/01/29 02:11:38;;;;;;;;;20.25;17.00;;;;;9.85;68.14;102871.28;5026641;28;45548;-83
2022/01/29 02:14:03;;;;;;;;;15.50;14.75;;;;;9.83;68.22;102870.41;5033097;28;45368;-82
2022/01/29 02:16:31;;;;;;;;;19.00;16.75;;;;;9.85;68.24;102870.41;5032792;28;45368;-83
2022/01/29 02:18:56;;;;;;;;;13.50;13.50;;;;;9.82;68.32;102864.22;5015765;28;45550;-83
2022/01/29 02:21:29;;;;;;;;;13.50;12.00;;;;;9.86;68.25;102866.81;5034371;28;47898;-82
2022/01/29 02:23:54;;;;;;;;;20.50;16.25;;;;;9.86;68.37;102856.19;5031031;28;47252;-83
2022/01/29 02:26:19;;;;;;;;;16.50;16.25;;;;;9.85;68.41;102857.09;5034482;28;46067;-83
2022/01/29 02:28:45;;;;;;;;;14.25;10.25;;;;;9.81;68.47;102849.19;5016731;28;45849;-83
2022/01/29 02:31:10;;;;;;;;;15.00;13.00;;;;;9.80;68.78;102847.41;5036213;28;45780;-84
2022/01/29 02:33:39;;;;;;;;;16.50;12.00;;;;;9.86;68.80;102851.75;5035990;28;45407;-84
2022/01/29 02:36:06;;;;;;;;;20.00;13.25;;;;;9.84;68.75;102844.69;5036183;28;47256;-84
2022/01/29 02:38:31;;;;;;;;;16.25;14.25;;;;;9.78;68.76;102835.06;5036514;28;45547;-84
2022/01/29 02:41:03;;;;;;;;;17.00;17.00;;;;;9.78;68.81;102835.91;5036639;28;45529;-84
2022/01/29 02:43:34;;;;;;;;;14.50;13.75;;;;;9.77;68.93;102828.88;5036837;28;45435;-84
2022/01/29 02:46:05;;;;;;;;;17.00;14.25;;;;;9.77;69.07;102822.69;5036073;28;45517;-84
2022/01/29 02:48:30;;;;;;;;;14.50;12.25;;;;;9.74;69.07;102817.38;5035797;28;45558;-84
2022/01/29 02:50:56;;;;;;;;;15.50;14.50;;;;;9.76;68.88;102815.59;5036195;28;45363;-84
2022/01/29 02:53:21;;;;;;;;;13.25;12.75;;;;;9.76;69.07;102812.94;5018245;28;45382;-84
2022/01/29 02:55:47;;;;;;;;;18.50;14.50;;;;;9.71;69.00;102810.34;5036560;28;45299;-84
2022/01/29 02:58:12;;;;;;;;;19.50;15.75;;;;;9.69;69.29;102798.00;5035806;28;45289;-84
2022/01/29 03:00:38;;;;;;;;;14.25;13.00;;;;;9.70;69.15;102795.31;5018170;28;45447;-84
2022/01/29 03:03:04;;;;;;;;;13.00;13.00;;;;;9.72;69.44;102789.97;5035530;28;45577;-85
2022/01/29 03:05:29;;;;;;;;;14.50;13.00;;;;;9.65;69.32;102788.34;5035323;28;46029;-84
2022/01/29 03:07:54;;;;;;;;;12.25;11.50;;;;;9.68;69.28;102789.13;5031677;28;45454;-85
2022/01/29 03:10:22;;;;;;;;;18.25;14.75;;;;;9.70;69.50;102794.44;5028222;28;45519;-85
2022/01/29 03:12:47;;;;;;;;;15.00;12.50;;;;;9.72;69.54;102782.88;5031465;28;45541;-85
2022/01/29 03:15:13;;;;;;;;;14.00;13.25;;;;;9.72;69.45;102787.31;5017530;28;47059;-85
2022/01/29 03:17:38;;;;;;;;;13.25;12.00;;;;;9.70;69.38;102783.81;5028198;28;45409;-84
2022/01/29 03:20:04;;;;;;;;;13.25;13.25;;;;;9.68;69.68;102789.13;5033510;28;45385;-85
2022/01/29 03:22:29;;;;;;;;;12.75;12.75;;;;;9.62;69.55;102777.75;5031872;28;45274;-85
2022/01/29 03:24:55;;;;;;;;;15.75;13.25;;;;;9.66;69.62;102780.31;5011776;28;48381;-85
2022/01/29 03:27:20;;;;;;;;;15.50;13.00;;;;;9.69;69.69;102782.94;5031079;28;50041;-85
2022/01/29 03:29:45;;;;;;;;;13.25;12.00;;;;;9.70;69.57;102787.34;5032992;28;45467;-84
2022/01/29 03:32:11;;;;;;;;;13.00;12.75;;;;;9.72;69.51;102787.31;5031696;28;45497;-85
2022/01/29 03:34:36;;;;;;;;;12.75;12.50;;;;;9.69;69.60;102780.28;5031754;28;45681;-85
2022/01/29 03:37:03;;;;;;;;;17.50;14.25;;;;;9.75;69.50;102792.56;5030665;28;53499;-85
2022/01/29 03:39:29;;;;;;;;;11.00;11.00;;;;;9.73;69.40;102781.06;5031221;28;45411;-85
2022/01/29 03:42:01;;;;;;;;;13.25;12.00;;;;;9.75;69.59;102793.44;5031696;28;48242;-85
2022/01/29 03:44:27;;;;;;;;;12.00;12.00;;;;;9.69;69.63;102782.94;5019349;28;45358;-85
2022/01/29 03:46:55;;;;;;;;;13.00;13.00;;;;;9.71;69.58;102785.53;5031601;28;45968;-83
2022/01/29 03:49:20;;;;;;;;;12.00;10.00;;;;;9.72;69.44;102782.88;5035312;28;45746;-84
2022/01/29 03:51:46;;;;;;;;;13.75;12.00;;;;;9.79;69.34;102788.94;5030161;28;49298;-83
2022/01/29 03:54:11;;;;;;;;;16.00;13.50;;;;;9.80;69.41;102799.53;5029806;28;56314;-84
2022/01/29 03:56:36;;;;;;;;;12.00;11.25;;;;;9.77;69.41;102780.13;5033223;28;50060;-84
2022/01/29 03:59:02;;;;;;;;;12.00;12.00;;;;;9.83;69.65;102782.63;5032352;28;45310;-85
2022/01/29 04:01:27;;;;;;;;;14.25;14.00;;;;;9.84;69.65;102783.50;5017180;28;45456;-84
2022/01/29 04:03:52;;;;;;;;;12.50;12.50;;;;;9.82;69.75;102794.19;5011774;28;47275;-84
2022/01/29 04:06:18;;;;;;;;;14.00;11.50;;;;;9.80;69.69;102786.25;5030275;28;45353;-83
2022/01/29 04:08:44;;;;;;;;;13.50;13.25;;;;;9.82;69.68;102781.78;5032174;28;45442;-84
2022/01/29 04:11:13;;;;;;;;;11.00;11.00;;;;;9.87;69.55;102779.03;5033300;28;45582;-84
2022/01/29 04:13:43;;;;;;;;;15.00;13.00;;;;;9.87;69.77;102780.81;5033811;28;47085;-84
2022/01/29 04:16:08;;;;;;;;;14.50;12.00;;;;;9.86;69.63;102781.69;5030478;28;45558;-84
2022/01/29 04:18:34;;;;;;;;;13.75;12.25;;;;;9.90;69.60;102786.06;5029928;28;45714;-84
2022/01/29 04:21:00;;;;;;;;;12.75;12.75;;;;;9.84;69.92;102768.44;5030516;28;45425;-84
2022/01/29 04:23:25;;;;;;;;;11.75;11.75;;;;;9.87;69.84;102762.19;5034948;28;45387;-84
2022/01/29 04:25:54;;;;;;;;;20.50;17.75;;;;;9.89;69.84;102771.88;5030985;28;45389;-84
2022/01/29 04:28:28;;;;;;;;;14.50;13.00;;;;;9.89;69.60;102773.69;5034235;28;45364;-83
2022/01/29 04:30:59;;;;;;;;;15.75;14.00;;;;;9.87;69.10;102772.84;5030451;28;45482;-84
2022/01/29 04:33:28;;;;;;;;;15.25;13.25;;;;;9.90;69.93;102783.41;5029507;28;45930;-84
2022/01/29 04:35:55;;;;;;;;;13.50;13.50;;;;;9.87;69.99;102772.84;5030952;28;45905;-84
2022/01/29 04:38:20;;;;;;;;;13.75;13.25;;;;;9.90;69.86;102773.63;5033955;28;45388;-84
2022/01/29 04:40:45;;;;;;;;;14.50;14.50;;;;;9.94;70.16;102774.47;5030674;28;45372;-85
2022/01/29 04:43:11;;;;;;;;;15.25;11.75;;;;;9.97;69.76;102777.03;5029626;28;46505;-84
2022/01/29 04:45:36;;;;;;;;;14.75;13.00;;;;;9.93;70.01;102762.03;5029875;28;45418;-84
2022/01/29 04:48:02;;;;;;;;;12.75;12.75;;;;;9.97;70.03;102771.72;5012378;28;45474;-84
2022/01/29 04:50:27;;;;;;;;;13.50;13.50;;;;;9.95;69.79;102777.06;5034561;28;45431;-84
2022/01/29 04:52:53;;;;;;;;;14.50;12.75;;;;;9.97;70.20;102769.06;5030867;28;46103;-84
2022/01/29 04:55:19;;;;;;;;;13.75;13.00;;;;;9.94;70.08;102762.03;5030113;28;45616;-84
2022/01/29 04:57:44;;;;;;;;;10.75;10.00;;;;;9.93;70.23;102760.28;5029709;28;45396;-84
2022/01/29 05:00:21;;;;;;;;;12.50;12.00;;;;;9.95;70.36;102763.75;5034496;28;45442;-84
2022/01/29 05:02:54;;;;;;;;;15.75;14.25;;;;;9.96;70.53;102767.31;5031441;28;46373;-84
2022/01/29 05:05:21;;;;;;;;;14.00;12.75;;;;;9.91;70.63;102756.78;5021961;28;45711;-84
2022/01/29 05:07:46;;;;;;;;;13.25;13.25;;;;;9.98;70.51;102771.72;5030551;28;45340;-84
2022/01/29 05:10:12;;;;;;;;;13.75;13.00;;;;;9.99;70.54;102760.13;5029227;28;45420;-84
2022/01/29 05:12:48;;;;;;;;;13.00;12.00;;;;;10.00;70.20;102763.66;5029451;28;45357;-84
2022/01/29 05:28:53;;;;;;;;;13.50;13.00;;;;;9.97;70.29;102761.94;5034138;28;45379;-84
2022/01/29 05:31:18;;;;;;;;;11.50;11.50;;;;;10.06;70.59;102766.22;5031950;28;51737;-84
2022/01/29 05:33:44;;;;;;;;;14.00;12.25;;;;;10.06;70.93;102765.34;5032939;28;46038;-84
2022/01/29 05:36:09;;;;;;;;;15.00;13.75;;;;;10.10;70.52;102759.03;5032366;28;45515;-84
2022/01/29 05:38:35;;;;;;;;;15.25;13.00;;;;;10.09;70.61;102759.94;5036563;28;45388;-84
2022/01/29 05:41:02;;;;;;;;;10.50;8.50;;;;;10.13;70.71;102762.50;5034242;28;45498;-85
2022/01/29 05:43:27;;;;;;;;;12.75;10.75;;;;;10.14;70.44;102758.06;5036774;28;46183;-84
2022/01/29 05:45:53;;;;;;;;;13.00;10.75;;;;;10.17;70.53;102758.00;5030199;28;56328;-85
2022/01/29 05:48:18;;;;;;;;;11.50;10.25;;;;;10.16;70.39;102751.78;5032786;28;45744;-84
2022/01/29 05:50:43;;;;;;;;;10.00;9.75;;;;;10.20;70.64;102753.50;5035020;28;45544;-84
2022/01/29 05:53:09;;;;;;;;;13.25;11.25;;;;;10.19;70.63;102748.19;5033296;28;45459;-85
2022/01/29 05:55:34;;;;;;;;;13.00;12.25;;;;;10.19;70.50;102738.41;5014671;28;45428;-85
2022/01/29 05:57:59;;;;;;;;;13.00;11.00;;;;;10.23;70.31;102747.22;5032652;28;45379;-84
2022/01/29 06:00:25;;;;;;;;;11.25;9.50;;;;;10.24;70.40;102746.28;5032653;28;45496;-84
2022/01/29 06:03:02;;;;;;;;;15.25;13.25;;;;;10.23;70.47;102745.44;5012170;28;46252;-84
2022/01/29 06:05:28;;;;;;;;;12.50;11.00;;;;;10.26;70.66;102749.81;5021260;28;45350;-85
2022/01/29 06:07:53;;;;;;;;;12.00;12.00;;;;;10.25;70.57;102740.06;5033687;28;45459;-84
2022/01/29 06:10:19;;;;;;;;;16.75;14.00;;;;;10.26;70.67;102748.94;5031955;28;45538;-85
2022/01/29 06:12:44;;;;;;;;;14.50;12.00;;;;;10.24;70.77;102755.16;5032338;28;45990;-84
2022/01/29 06:15:11;;;;;;;;;14.75;11.50;;;;;10.17;70.80;102736.69;5031837;28;55704;-84
2022/01/29 06:17:38;;;;;;;;;13.00;11.75;;;;;10.16;70.95;102753.59;5035623;28;45293;-85
2022/01/29 06:20:04;;;;;;;;;10.25;10.25;;;;;10.10;71.39;102751.03;5034424;28;45614;-84
2022/01/29 06:22:29;;;;;;;;;9.75;9.75;;;;;10.08;71.39;102752.84;5032679;28;46616;-84
2022/01/29 06:24:54;;;;;;;;;13.25;10.25;;;;;10.10;71.49;102746.63;5031897;28;45384;-85
2022/01/29 06:27:20;;;;;;;;;10.75;10.75;;;;;10.12;71.44;102739.44;5032408;28;45507;-84
2022/01/29 06:29:45;;;;;;;;;11.75;10.00;;;;;10.22;71.37;102756.09;5029105;28;45507;-85
2022/01/29 06:32:10;;;;;;;;;12.00;10.00;;;;;10.23;71.14;102760.53;5020513;28;46379;-84
2022/01/29 06:34:35;;;;;;;;;9.00;8.25;;;;;10.26;71.52;102748.94;5024361;28;45459;-85
2022/01/29 06:37:01;;;;;;;;;10.00;10.00;;;;;10.29;71.46;102754.22;5022192;28;56385;-84
2022/01/29 06:39:26;;;;;;;;;12.75;11.50;;;;;10.29;71.37;102748.88;5024568;28;45386;-85
2022/01/29 06:41:52;;;;;;;;;9.75;9.75;;;;;10.34;71.19;102749.66;5032648;28;45444;-84
2022/01/29 06:44:17;;;;;;;;;10.25;10.25;;;;;10.32;71.21;102751.47;5035656;28;45476;-84
2022/01/29 06:46:42;;;;;;;;;11.50;8.75;;;;;10.36;71.43;102756.69;5032680;28;45376;-85
2022/01/29 06:49:08;;;;;;;;;11.50;11.50;;;;;10.39;71.18;102743.34;5029753;28;45318;-84
2022/01/29 06:51:33;;;;;;;;;10.00;9.75;;;;;10.38;71.30;102738.03;5027558;28;46154;-84
2022/01/29 06:53:59;;;;;;;;;12.25;11.75;;;;;10.41;71.08;102745.94;5019886;28;51938;-85
2022/01/29 06:56:24;;;;;;;;;14.25;12.50;;;;;10.44;71.12;102745.91;5013771;28;45450;-85
2022/01/29 06:58:49;;;;;;;;;13.75;13.75;;;;;10.44;70.94;102737.91;5018459;28;50505;-85
2022/01/29 07:01:16;;;;;;;;;13.75;12.25;;;;;10.44;70.92;102740.56;5028194;28;57227;-85
2022/01/29 07:03:41;;;;;;;;;14.00;10.50;;;;;10.47;70.86;102735.16;5031467;28;45462;-85
2022/01/29 07:06:06;;;;;;;;;9.00;9.00;;;;;10.47;70.68;102737.81;5031386;28;45314;-85
2022/01/29 07:08:37;;;;;;;;;14.00;9.50;;;;;10.49;70.95;102744.00;5034538;28;51328;-84
2022/01/29 07:11:02;;;;;;;;;9.50;9.50;;;;;10.40;70.77;102733.56;5032836;28;46032;-85
2022/01/29 07:13:27;;;;;;;;;12.50;10.00;;;;;10.51;70.69;102744.84;5031844;28;45379;-85
2022/01/29 07:15:53;;;;;;;;;14.25;11.75;;;;;10.51;70.84;102750.16;5031027;28;45381;-84
2022/01/29 07:18:18;;;;;;;;;14.50;14.00;;;;;10.50;70.77;102748.41;5031206;28;45336;-84
2022/01/29 07:20:46;;;;;;;;;16.50;15.00;;;;;10.48;71.04;102741.34;5033048;28;54114;-84
2022/01/29 07:23:11;;;;;;;;;14.00;9.00;;;;;10.42;70.88;102721.09;5033642;28;45536;-84
2022/01/29 07:25:36;;;;;;;;;12.25;11.75;;;;;10.43;71.02;102723.69;5031564;28;46993;-85
2022/01/29 07:28:02;;;;;;;;;10.75;10.75;;;;;10.51;71.21;102734.19;5025248;28;45399;-85
2022/01/29 07:30:27;;;;;;;;;13.25;13.00;;;;;10.56;71.07;102723.41;5022657;28;46221;-85
2022/01/29 07:32:52;;;;;;;;;12.00;12.00;;;;;10.52;70.83;102717.28;5033955;28;45473;-85
2022/01/29 07:35:18;;;;;;;;;15.50;12.00;;;;;10.55;70.91;102721.66;5034798;28;45455;-85
2022/01/29 07:37:43;;;;;;;;;13.75;12.00;;;;;10.63;70.77;102739.22;5031486;28;45449;-85
2022/01/29 07:40:09;;;;;;;;;17.25;15.75;;;;;10.65;70.70;102740.06;5026122;28;55519;-84
2022/01/29 07:42:35;;;;;;;;;14.50;13.50;;;;;10.65;70.60;102737.41;5030539;28;45467;-85
2022/01/29 07:45:00;;;;;;;;;10.75;10.75;;;;;10.67;70.88;102742.66;5034997;28;45473;-85
2022/01/29 07:47:25;;;;;;;;;15.75;13.50;;;;;10.68;70.73;102733.78;5034424;28;45494;-85
2022/01/29 07:49:51;;;;;;;;;16.50;12.00;;;;;10.66;70.65;102732.94;5013118;28;54487;-85
2022/01/29 07:52:16;;;;;;;;;12.25;10.50;;;;;10.56;70.83;102724.31;5011395;28;58728;-85
2022/01/29 07:54:41;;;;;;;;;13.25;11.00;;;;;10.66;71.06;102727.63;5033477;28;45459;-84
2022/01/29 07:57:07;;;;;;;;;12.75;11.75;;;;;10.64;70.72;102717.00;5030597;28;45477;-84
2022/01/29 07:59:32;;;;;;;;;9.50;7.75;;;;;10.65;70.70;102729.41;5033873;28;45703;-85
2022/01/29 08:01:57;;;;;;;;;10.25;10.25;;;;;10.68;70.82;102731.13;5022829;28;45530;-85
2022/01/29 08:04:24;;;;;;;;;9.50;9.50;;;;;10.66;70.87;102722.28;5034793;28;45360;-85
2022/01/29 08:06:51;;;;;;;;;14.25;9.50;;;;;10.74;70.79;102733.63;5028955;28;45451;-85
2022/01/29 08:09:16;;;;;;;;;11.00;11.00;;;;;10.76;70.76;102737.13;5029074;28;47192;-84
2022/01/29 08:11:41;;;;;;;;;13.25;12.25;;;;;10.76;70.88;102734.47;5027813;28;45518;-84
2022/01/29 08:14:07;;;;;;;;;9.00;8.00;;;;;10.76;70.69;102720.28;5032330;28;45716;-84
2022/01/29 08:16:32;;;;;;;;;8.00;6.50;;;;;10.79;70.73;102726.38;5027588;28;45496;-85
2022/01/29 08:18:57;;;;;;;;;12.50;12.25;;;;;10.82;70.69;102729.00;5030148;28;46260;-84
2022/01/29 08:21:23;;;;;;;;;15.25;11.00;;;;;10.84;70.77;102719.16;5029657;28;45483;-84
2022/01/29 08:23:48;;;;;;;;;9.00;8.50;;;;;10.82;70.68;102712.09;5032763;28;45510;-84
2022/01/29 08:26:14;;;;;;;;;7.25;7.25;;;;;10.87;70.80;102721.75;5026292;28;45327;-84
2022/01/29 08:28:40;;;;;;;;;10.50;8.00;;;;;10.92;70.62;102718.06;5031778;28;46226;-84
2022/01/29 08:31:05;;;;;;;;;10.00;8.00;;;;;10.88;70.79;102720.81;5027536;28;45309;-84
2022/01/29 08:33:31;;;;;;;;;8.50;7.50;;;;;10.88;70.83;102717.28;5030174;28;45493;-84
2022/01/29 08:35:57;;;;;;;;;16.00;10.25;;;;;10.95;70.88;102721.56;5032842;28;45468;-84
2022/01/29 08:38:23;;;;;;;;;8.50;6.50;;;;;10.94;70.60;102722.44;5026081;28;45324;-84
2022/01/29 08:40:49;;;;;;;;;6.50;6.50;;;;;11.01;70.67;102721.38;5026363;28;45503;-84
2022/01/29 08:43:14;;;;;;;;;6.25;6.25;;;;;11.02;70.49;102720.47;5031990;28;45222;-84
2022/01/29 08:45:40;;;;;;;;;6.75;6.75;;;;;11.04;70.60;102723.97;5032999;28;45515;-84
2022/01/29 08:48:06;;;;;;;;;9.00;8.00;;;;;11.10;70.30;102725.59;5028725;28;46088;-84
2022/01/29 08:50:31;;;;;;;;;6.75;5.50;;;;;11.09;70.44;102722.06;5000558;28;45479;-84
2022/01/29 08:52:56;;;;;;;;;7.00;7.00;;;;;11.06;70.57;102716.81;5031109;28;45428;-84
2022/01/29 08:55:22;;;;;;;;;7.75;7.00;;;;;11.03;70.63;102713.34;5032125;28;45533;-84
2022/01/29 08:57:47;;;;;;;;;7.00;7.00;;;;;11.06;70.77;102711.50;5032810;28;47669;-84
2022/01/29 09:00:13;;;;;;;;;6.50;6.50;;;;;11.13;70.57;102713.97;5029769;28;45698;-84
2022/01/29 09:02:39;;;;;;;;;5.75;5.00;;;;;11.09;70.75;102715.88;5015019;28;45575;-84
2022/01/29 09:05:06;;;;;;;;;4.00;4.00;;;;;11.12;70.53;102722.91;5033940;28;45364;-84
2022/01/29 09:07:32;;;;;;;;;4.50;4.50;;;;;11.08;70.75;102708.78;5031401;28;47735;-84
2022/01/29 09:09:57;;;;;;;;;3.50;3.50;;;;;11.00;71.07;102713.44;5031059;28;46824;-84
2022/01/29 09:12:23;;;;;;;;;6.00;5.75;;;;;11.03;71.05;102719.56;5033438;28;45395;-84
2022/01/29 09:14:51;;;;;;;;;3.25;3.25;;;;;11.01;71.14;102716.03;5033965;28;45476;-84
2022/01/29 09:17:16;;;;;;;;;3.00;3.00;;;;;11.00;71.43;102713.44;5018713;28;47585;-84
2022/01/29 09:19:42;;;;;;;;;3.00;3.00;;;;;11.02;71.01;102707.16;5019804;28;45460;-84
2022/01/29 09:22:07;;;;;;;;;2.50;2.50;;;;;11.03;71.40;102724.00;5031523;28;45396;-84
2022/01/29 09:24:33;;;;;;;;;3.00;3.00;;;;;10.97;71.89;102719.72;5033423;28;45399;-83
2022/01/29 09:27:01;;;;;;;;;2.25;2.25;;;;;11.01;71.86;102716.03;5031970;28;47176;-84
2022/01/29 09:29:27;;;;;;;;;4.00;3.00;;;;;10.99;71.88;102709.00;5021948;28;45604;-83
2022/01/29 09:31:52;;;;;;;;;2.00;2.00;;;;;10.99;72.15;102709.00;5033886;28;45393;-84
2022/01/29 09:34:17;;;;;;;;;2.00;2.00;;;;;11.07;71.55;102712.38;5014909;28;45416;-84
2022/01/29 09:36:43;;;;;;;;;1.00;1.00;;;;;11.07;71.52;102702.56;5033075;28;45983;-84
2022/01/29 09:39:08;;;;;;;;;1.50;1.50;;;;;11.11;71.81;102700.69;5031234;28;45385;-84
2022/01/29 09:41:37;;;;;;;;;3.75;2.25;;;;;11.09;71.57;102697.22;5022543;28;45325;-84
2022/01/29 09:44:02;;;;;;;;;2.75;2.75;;;;;11.12;71.87;102691.78;5036246;28;45611;-84
2022/01/29 09:46:30;;;;;;;;;1.75;1.75;;;;;11.18;71.65;102688.06;5032473;28;46651;-84
2022/01/29 09:48:55;;;;;;;;;2.00;2.00;;;;;11.15;71.14;102688.16;5032284;28;45562;-84
2022/01/29 09:51:21;;;;;;;;;3.50;2.00;;;;;11.19;71.46;102687.19;5032434;28;45421;-85
2022/01/29 09:53:47;;;;;;;;;4.00;3.00;;;;;11.20;71.51;102689.78;5034532;28;45531;-84
2022/01/29 09:56:14;;;;;;;;;1.00;1.00;;;;;11.21;71.39;102696.00;5034894;28;45518;-84
2022/01/29 09:58:41;;;;;;;;;1.75;1.75;;;;;11.26;71.45;102700.28;5033224;28;45437;-84
2022/01/29 10:01:07;;;;;;;;;3.00;3.00;;;;;11.27;71.15;102701.16;5032596;28;45474;-84
2022/01/29 10:03:33;;;;;;;;;1.75;1.50;;;;;11.19;71.28;102689.84;5032201;28;45448;-84
2022/01/29 10:06:00;;;;;;;;;2.75;2.00;;;;;11.19;71.51;102700.50;5032896;28;46512;-85
2022/01/29 10:08:28;;;;;;;;;2.00;2.00;;;;;11.16;71.25;102714.78;5020972;28;45483;-84
2022/01/29 10:10:55;;;;;;;;;2.00;2.00;;;;;11.15;71.72;102722.81;5021231;28;45329;-84
2022/01/29 10:13:24;;;;;;;;;3.25;3.00;;;;;11.21;71.87;102706.69;5023855;28;45578;-85
2022/01/29 10:15:51;;;;;;;;;3.25;3.25;;;;;11.23;71.88;102707.47;5027361;28;45692;-85
2022/01/29 10:18:21;;;;;;;;;2.00;2.00;;;;;11.25;71.47;102716.31;5030435;28;45614;-85
2022/01/29 10:20:46;;;;;;;;;4.50;4.50;;;;;11.29;71.49;102712.66;5033403;28;45509;-85
2022/01/29 10:23:12;;;;;;;;;2.75;2.75;;;;;11.28;71.53;102716.22;5034019;28;45392;-84
2022/01/29 10:25:41;;;;;;;;;3.00;3.00;;;;;11.22;71.74;102725.28;5026150;28;45306;-85
2022/01/29 10:28:11;;;;;;;;;2.75;2.75;;;;;11.23;71.73;102715.47;5034572;28;45530;-84
2022/01/29 10:30:48;;;;;;;;;4.00;4.00;;;;;11.26;71.84;102716.28;5031194;28;45651;-84
2022/01/29 10:33:42;;;;;;;;;4.50;4.50;;;;;11.25;71.76;102703.84;5022560;28;45502;-84
2022/01/29 10:36:14;;;;;;;;;3.50;3.50;;;;;11.25;71.61;102708.31;5028814;28;46324;-84
2022/01/29 10:38:40;;;;;;;;;4.75;4.00;;;;;11.29;71.80;102700.19;5020589;28;45274;-85
2022/01/29 10:41:26;;;;;;;;;4.00;4.00;;;;;11.28;72.02;102709.13;5024586;28;45476;-85
2022/01/29 10:44:00;;;;;;;;;3.00;3.00;;;;;11.27;72.05;102698.50;5035313;28;45374;-84
2022/01/29 10:46:31;;;;;;;;;3.50;2.00;;;;;11.26;71.96;102707.41;5023118;28;45410;-88
2022/01/29 10:48:58;;;;;;;;;3.25;3.25;;;;;11.30;72.00;102707.28;5027594;28;45466;-84
2022/01/29 10:51:24;;;;;;;;;3.00;3.00;;;;;11.28;72.05;102700.22;5028746;28;45611;-84
2022/01/29 10:53:51;;;;;;;;;5.50;4.75;;;;;11.29;72.04;102699.31;5024538;28;45512;-84
2022/01/29 10:56:17;;;;;;;;;4.75;3.00;;;;;11.30;72.16;102699.28;5034343;28;45923;-84
2022/01/29 10:58:43;;;;;;;;;2.00;2.00;;;;;11.23;72.20;102696.81;5013725;28;45415;-84
2022/01/29 11:01:27;;;;;;;;;1.75;1.75;;;;;11.28;72.00;102706.47;5012914;28;45594;-84
2022/01/29 11:03:55;;;;;;;;;2.50;2.50;;;;;11.22;72.34;102695.09;5031152;28;45349;-84
2022/01/29 11:06:27;;;;;;;;;4.00;2.00;;;;;11.25;72.33;102702.97;5030767;28;46217;-84
2022/01/29 11:08:54;;;;;;;;;3.00;3.00;;;;;11.31;72.42;102697.50;5031720;28;45344;-84
2022/01/29 11:11:20;;;;;;;;;2.75;2.75;;;;;11.33;72.10;102698.34;5034678;28;45451;-84
2022/01/29 11:13:46;;;;;;;;;4.00;2.50;;;;;11.37;71.98;102704.44;5028852;28;45532;-84
2022/01/29 11:16:13;;;;;;;;;4.00;2.75;;;;;11.37;72.04;102702.66;5033103;28;52069;-84
2022/01/29 11:18:38;;;;;;;;;3.50;2.00;;;;;11.40;71.62;102707.91;5012944;28;45454;-85
2022/01/29 11:21:04;;;;;;;;;2.25;2.25;;;;;11.46;71.90;102705.06;5029801;28;45451;-85
2022/01/29 11:23:31;;;;;;;;;5.00;4.50;;;;;11.54;71.54;102715.50;5034922;28;45403;-85
2022/01/29 11:25:58;;;;;;;;;2.00;2.00;;;;;11.58;71.68;102702.97;5034195;28;46345;-85
2022/01/29 11:28:27;;;;;;;;;2.25;2.25;;;;;11.61;71.53;102714.41;5034084;28;45414;-85
2022/01/29 11:31:13;;;;;;;;;2.00;2.00;;;;;11.55;71.52;102711.06;5030737;28;45542;-85